Cerro Canasta, Chile
Current Conditions -  °F | °C
As of 2:00 PM on Tuesday 21 Oct 2014 (Local Time) from SCVM Reporting Station
Haze Haze  
Wind Chill: 61°   Ceiling: 300
Heat Index: 61°   Visibility: 2.1mi
Dew Point: 55°   Wind: 15mph
Humidity: 82%   Direction: 300°WNW
Pressure: 30"   Gusts: NA
Location:  32.48°S, 71.33°W
Report Text: SCVM 211800Z 30013KT 3500 BR BKN003 16/13 Q1016
Loading
Personal Weather Stations






























Interactive Weather Map
Tropical Storm Tracking
New forecast layout! Learn more

10-Day Weather Forecast

Advertisements
Track Severe Weather on mobile